Time,TemperatureF,DewpointF,PressureIn,WindDirection,WindDirectionDegrees,WindSpeedMPH,WindSpeedGustMPH,Humidity,HourlyPrecipIn,Conditions,Clouds,dailyrainin,SoftwareType,DateUTC
2013-05-06 00:01:00,59.0,31.0,-100.00,NNW,343,3.0,5.0,34,-99.99,,,-99.99,,2013-05-06 07:01:00,
2013-05-06 00:11:00,59.0,31.0,-100.00,NNW,343,3.0,5.0,34,-99.99,,,-99.99,,2013-05-06 07:11:00,
2013-05-06 02:01:00,56.0,33.0,-100.00,WNW,293,3.0,5.0,41,-99.99,,,-99.99,,2013-05-06 09:01:00,
2013-05-06 02:11:00,56.0,33.0,-100.00,WNW,293,3.0,5.0,41,-99.99,,,-99.99,,2013-05-06 09:11:00,
2013-05-06 03:02:00,58.0,32.0,-100.00,WSW,241,3.0,6.0,37,-99.99,,,-99.99,,2013-05-06 10:02:00,
2013-05-06 03:12:00,58.0,32.0,-100.00,WSW,241,3.0,6.0,37,-99.99,,,-99.99,,2013-05-06 10:12:00,
2013-05-06 04:02:00,60.0,33.0,-100.00,NW,307,9.0,12.0,36,-99.99,,,-99.99,,2013-05-06 11:02:00,
2013-05-06 04:12:00,60.0,33.0,-100.00,NW,307,9.0,12.0,36,-99.99,,,-99.99,,2013-05-06 11:12:00,
2013-05-06 05:01:00,62.0,30.0,-100.00,WNW,292,9.0,14.0,29,-99.99,,,-99.99,,2013-05-06 12:01:00,
2013-05-06 05:12:00,62.0,30.0,-100.00,WNW,292,9.0,14.0,29,-99.99,,,-99.99,,2013-05-06 12:12:00,
2013-05-06 06:01:00,58.0,32.0,-100.00,NW,315,8.0,13.0,37,-99.99,,,-99.99,,2013-05-06 13:01:00,
2013-05-06 06:11:00,58.0,32.0,-100.00,NW,315,8.0,13.0,37,-99.99,,,-99.99,,2013-05-06 13:11:00,
2013-05-06 07:01:00,57.0,32.0,-100.00,WNW,295,9.0,12.0,38,-99.99,,,-99.99,,2013-05-06 14:01:00,
2013-05-06 07:11:00,57.0,32.0,-100.00,WNW,295,9.0,12.0,38,-99.99,,,-99.99,,2013-05-06 14:11:00,
2013-05-06 08:01:00,63.0,33.0,-100.00,WNW,298,10.0,14.0,32,-99.99,,,-99.99,,2013-05-06 15:01:00,
2013-05-06 08:11:00,63.0,33.0,-100.00,WNW,298,10.0,14.0,32,-99.99,,,-99.99,,2013-05-06 15:11:00,
2013-05-06 09:03:00,68.0,33.0,-100.00,NW,319,9.0,13.0,27,-99.99,,,-99.99,,2013-05-06 16:03:00,
2013-05-06 09:13:00,68.0,33.0,-100.00,NW,319,9.0,13.0,27,-99.99,,,-99.99,,2013-05-06 16:13:00,
2013-05-06 10:02:00,73.0,33.0,-100.00,North,349,5.0,8.0,22,-99.99,,,-99.99,,2013-05-06 17:02:00,
2013-05-06 10:12:00,73.0,33.0,-100.00,North,349,5.0,8.0,22,-99.99,,,-99.99,,2013-05-06 17:12:00,
2013-05-06 11:01:00,76.0,33.0,-100.00,NW,325,6.0,12.0,20,-99.99,,,-99.99,,2013-05-06 18:01:00,
2013-05-06 11:12:00,76.0,33.0,-100.00,NW,325,6.0,12.0,20,-99.99,,,-99.99,,2013-05-06 18:12:00,
2013-05-06 12:01:00,79.0,33.0,-100.00,NNW,330,6.0,12.0,18,-99.99,,,-99.99,,2013-05-06 19:01:00,
2013-05-06 12:11:00,79.0,33.0,-100.00,NNW,330,6.0,12.0,18,-99.99,,,-99.99,,2013-05-06 19:11:00,
2013-05-06 13:01:00,83.0,32.0,-100.00,NNW,333,6.0,15.0,15,-99.99,,,-99.99,,2013-05-06 20:01:00,
2013-05-06 13:11:00,83.0,32.0,-100.00,NNW,333,6.0,15.0,15,-99.99,,,-99.99,,2013-05-06 20:11:00,
2013-05-06 16:02:00,89.0,31.0,-100.00,NNW,342,5.0,14.0,12,-99.99,,,-99.99,,2013-05-06 23:02:00,
2013-05-06 16:12:00,89.0,31.0,-100.00,NNW,342,5.0,14.0,12,-99.99,,,-99.99,,2013-05-06 23:12:00,
2013-05-06 17:01:00,89.0,31.0,-100.00,NNW,329,9.0,17.0,12,-99.99,,,-99.99,,2013-05-07 00:01:00,
2013-05-06 17:11:00,89.0,31.0,-100.00,NNW,329,9.0,17.0,12,-99.99,,,-99.99,,2013-05-07 00:11:00,
2013-05-06 19:02:00,87.0,28.0,-100.00,NW,323,6.0,12.0,11,-99.99,,,-99.99,,2013-05-07 02:02:00,
2013-05-06 19:11:00,87.0,28.0,-100.00,NW,323,6.0,12.0,11,-99.99,,,-99.99,,2013-05-07 02:11:00,
2013-05-06 20:01:00,85.0,29.0,-100.00,North,350,6.0,10.0,13,-99.99,,,-99.99,,2013-05-07 03:01:00,
2013-05-06 20:11:00,85.0,29.0,-100.00,North,350,6.0,10.0,13,-99.99,,,-99.99,,2013-05-07 03:11:00,
2013-05-06 21:02:00,76.0,29.0,-100.00,WNW,302,2.0,2.0,17,-99.99,,,-99.99,,2013-05-07 04:02:00,
2013-05-06 21:12:00,76.0,29.0,-100.00,WNW,302,2.0,2.0,17,-99.99,,,-99.99,,2013-05-07 04:12:00,
2013-05-06 22:02:00,66.0,28.0,-100.00,SW,231,2.0,5.0,23,-99.99,,,-99.99,,2013-05-07 05:02:00,
2013-05-06 22:12:00,66.0,28.0,-100.00,SW,231,2.0,5.0,23,-99.99,,,-99.99,,2013-05-07 05:12:00,
2013-05-06 23:02:00,68.0,31.0,-100.00,WSW,249,8.0,10.0,25,-99.99,,,-99.99,,2013-05-07 06:02:00,
2013-05-06 23:12:00,68.0,31.0,-100.00,WSW,249,8.0,10.0,25,-99.99,,,-99.99,,2013-05-07 06:12:00,